Altmar, New York
Current Conditions -  °F | °C
As of 10:54 PM on Tuesday 21 Oct 2014 (Local Time) from KFZY Reporting Station
Overcast Overcast  
Wind Chill: 41°   Ceiling: 600
Heat Index: 47°   Visibility: 7mi
Dew Point: 44°   Wind: 13mph
Humidity: 90%   Direction: 10°N
Pressure: 30.04"   Gusts: NA
Location:  43.51°N, 76°W
Report Text: KFZY 220254Z AUTO 01011KT 7SM BKN006 OVC025 08/07 A3004 RMK AO2 SLP174 60000 T00830067 51021
Loading
Personal Weather Stations






























Interactive Weather Map New forecast layout! Learn more

10-Day Weather Forecast

Advertisements
Track Severe Weather on mobile